Rostein — LLHI — position and weather

sailwx.info

Track history (hours):
 
Tides and Currents Weather Stations Pressure Air Temp Water Temp Dewpoint Dewpoint Depression Visibility Wind Speed Wind Dir Waves Ship Positions

Rostein

Last reported at 2015-Mar-30 10:14 UTC. Time now 2015-Mar-31 02:09 UTC.
Position N 69°47' E 019°06'.

Length 57 m; draft 5 m.

Type: Cargo ship. MMSI: 257210000.

Date/timePositionNaut miles runAvg speedWind from/ knotsBaromVisibWave heightAir tempDewpointWater temp
2015-Mar-30 10:14N 69°47' E 019°06'1 0.1
2015-Mar-30 02:12N 69°46' E 019°04'710.9
2015-Mar-30 01:33N 69°39' E 018°58'0 0.0
2015-Mar-30 00:33N 69°39' E 018°58'0 0.0
2015-Mar-29 23:33N 69°39' E 018°58'0 0.0
2015-Mar-29 22:33N 69°39' E 018°58'0 0.0
2015-Mar-29 21:33N 69°39' E 018°58'0 0.0
2015-Mar-29 20:33N 69°39' E 018°58'0 0.0
2015-Mar-29 19:33N 69°39' E 018°58'0 0.0
2015-Mar-29 18:33N 69°39' E 018°58'0 0.0
2015-Mar-29 17:33N 69°39' E 018°58'0 0.0
2015-Mar-29 16:33N 69°39' E 018°58'0 0.0
2015-Mar-29 15:33N 69°39' E 018°58'0 0.0
2015-Mar-29 14:33N 69°39' E 018°58'0 0.0
2015-Mar-29 13:33N 69°39' E 018°58'0 0.0
2015-Mar-29 12:33N 69°39' E 018°58'0 0.0
2015-Mar-29 11:33N 69°39' E 018°58'0 0.0
2015-Mar-29 10:33N 69°39' E 018°58'0 0.0
2015-Mar-29 09:33N 69°39' E 018°58'0 0.0
2015-Mar-29 08:33N 69°39' E 018°58'0 0.0
2015-Mar-29 07:33N 69°39' E 018°58'0 0.0
2015-Mar-29 06:33N 69°39' E 018°58'6 5.3
2015-Mar-29 05:31N 69°44' E 019°05'0 0.0
2015-Mar-28 19:26N 69°44' E 019°05'910.1
2015-Mar-28 18:33N 69°36' E 018°54'0 0.0
2015-Mar-28 03:33N 69°36' E 018°53'6 0.5
2015-Mar-27 16:33N 69°41' E 019°02'4 3.8
2015-Mar-27 15:33N 69°38' E 018°56'3 0.2
2015-Mar-27 00:24N 69°35' E 018°51'87 2.0
2015-Mar-25 05:27N 70°27' E 022°15'10 9.9
2015-Mar-25 04:28N 70°29' E 022°43'8 9.1
2015-Mar-25 03:34N 70°33' E 023°05'9 9.5
2015-Mar-25 02:34N 70°40' E 023°25'6 0.3
2015-Mar-24 07:26N 70°44' E 023°37'1112.0
2015-Mar-24 06:33N 70°37' E 023°14'18 0.5
2015-Mar-22 21:33N 70°28' E 022°28'1010.6
2015-Mar-22 20:34N 70°31' E 022°58'1110.8
2015-Mar-22 19:33N 70°39' E 023°21'8 0.4
2015-Mar-21 22:32N 70°45' E 023°37'1111.2
2015-Mar-21 21:33N 70°37' E 023°15'99 5.7
2015-Mar-21 04:22N 69°45' E 019°07'8 9.6
2015-Mar-21 03:33N 69°38' E 018°56'2 2.0
2015-Mar-21 02:33N 69°36' E 018°54'  
Track history (hours):
 
Tides and Currents Weather Stations Pressure Air Temp Water Temp Dewpoint Dewpoint Depression Visibility Wind Speed Wind Dir Waves Ship Positions

Rostein

Last reported at 2015-Mar-30 10:14 UTC. Time now 2015-Mar-31 02:09 UTC.
Position N 69°47' E 019°06'.

Length 57 m; draft 5 m.

Type: Cargo ship. MMSI: 257210000.

Date/timePositionNaut miles runAvg speedWind from/ knotsBaromVisibWave heightAir tempDewpointWater temp
2015-Mar-30 10:14N 69°47' E 019°06'1 0.1
2015-Mar-30 02:12N 69°46' E 019°04'710.9
2015-Mar-30 01:33N 69°39' E 018°58'0 0.0
2015-Mar-30 00:33N 69°39' E 018°58'0 0.0
2015-Mar-29 23:33N 69°39' E 018°58'0 0.0
2015-Mar-29 22:33N 69°39' E 018°58'0 0.0
2015-Mar-29 21:33N 69°39' E 018°58'0 0.0
2015-Mar-29 20:33N 69°39' E 018°58'0 0.0
2015-Mar-29 19:33N 69°39' E 018°58'0 0.0
2015-Mar-29 18:33N 69°39' E 018°58'0 0.0
2015-Mar-29 17:33N 69°39' E 018°58'0 0.0
2015-Mar-29 16:33N 69°39' E 018°58'0 0.0
2015-Mar-29 15:33N 69°39' E 018°58'0 0.0
2015-Mar-29 14:33N 69°39' E 018°58'0 0.0
2015-Mar-29 13:33N 69°39' E 018°58'0 0.0
2015-Mar-29 12:33N 69°39' E 018°58'0 0.0
2015-Mar-29 11:33N 69°39' E 018°58'0 0.0
2015-Mar-29 10:33N 69°39' E 018°58'0 0.0
2015-Mar-29 09:33N 69°39' E 018°58'0 0.0
2015-Mar-29 08:33N 69°39' E 018°58'0 0.0
2015-Mar-29 07:33N 69°39' E 018°58'0 0.0
2015-Mar-29 06:33N 69°39' E 018°58'6 5.3
2015-Mar-29 05:31N 69°44' E 019°05'0 0.0
2015-Mar-28 19:26N 69°44' E 019°05'910.1
2015-Mar-28 18:33N 69°36' E 018°54'0 0.0
2015-Mar-28 03:33N 69°36' E 018°53'6 0.5
2015-Mar-27 16:33N 69°41' E 019°02'4 3.8
2015-Mar-27 15:33N 69°38' E 018°56'3 0.2
2015-Mar-27 00:24N 69°35' E 018°51'87 2.0
2015-Mar-25 05:27N 70°27' E 022°15'10 9.9
2015-Mar-25 04:28N 70°29' E 022°43'8 9.1
2015-Mar-25 03:34N 70°33' E 023°05'9 9.5
2015-Mar-25 02:34N 70°40' E 023°25'6 0.3
2015-Mar-24 07:26N 70°44' E 023°37'1112.0
2015-Mar-24 06:33N 70°37' E 023°14'18 0.5
2015-Mar-22 21:33N 70°28' E 022°28'1010.6
2015-Mar-22 20:34N 70°31' E 022°58'1110.8
2015-Mar-22 19:33N 70°39' E 023°21'8 0.4
2015-Mar-21 22:32N 70°45' E 023°37'1111.2
2015-Mar-21 21:33N 70°37' E 023°15'99 5.7
2015-Mar-21 04:22N 69°45' E 019°07'8 9.6
2015-Mar-21 03:33N 69°38' E 018°56'2 2.0
2015-Mar-21 02:33N 69°36' E 018°54'  

Dump ship's entire track history